• Join FlightAware (Why Join?)
  • Login
  • US Flag 
08:04PM EDT


 

Airport Tracker/Info


-or-


 

Live Flight TrackerFlight Track Log ✈ AWI3591 ✈ 23-May-2013 ✈ KBOS - KPIT

Flight Track Log - Related Links

Times and Time Zones

All times are in EDT time to prevent confusion due to time zone crossing. See the AWI3591 flight status page for this flight to view local times or setup timezone preferences in your user account.

Time Position Orientation Groundspeed Altitude Reporting Facility
EDT Latitude Longitude Course Direction KTS MPH feet Rate Location/Type
07:56PM 42.3500 -71.0167 270° West 153 176 900  Level KA90
07:56PM 42.3333 -71.0167 180° South 155 178 1,600 1,440 Climbing KA90
07:57PM 42.3000 -70.9500 124° Southeast 230 265 2,800 1,620 Climbing KA90
07:58PM 42.3740 -70.7378 168° South  Level FlightAware Approximate
07:58PM 42.3225 -70.8450 74° East 307 353 4,800  Level Boston Center
07:59PM 42.2841 -70.7406 228° Southwest  Level FlightAware Approximate
07:59PM 42.3192 -70.7525 93° East 328 377 6,700  Level Boston Center
08:00PM 42.2215 -70.8443 240° Southwest  Level FlightAware Approximate
08:00PM 42.2561 -70.7233 161° South 248 285 8,800  Level Boston Center
08:01PM 42.1833 -70.9646 270° West  Level FlightAware Approximate
08:01PM 42.1897 -70.7533 199° South 205 236 10,600  Level Boston Center
08:02PM 42.1747 -70.8628 260° West 197 227 12,000 1,500 Climbing Boston Center
08:03PM 42.1847 -70.9944 276° West 261 300 13,700 1,500 Climbing Boston Center
08:04PM 42.1906 -71.1092 274° West 322 371 15,000 1,200 Climbing Boston Center
08:05PM 42.2003 -71.2519 275° West 348 400 16,200 1,140 Climbing Boston Center
08:06PM 42.2078 -71.3694 275° West 358 412 17,300 1,200 Climbing Boston Center
08:07PM 42.2175 -71.5206 275° West 366 421 18,600 1,080 Climbing Boston Center
08:08PM 42.2269 -71.6633 275° West 372 428 19,500 900 Climbing Boston Center
08:09PM 42.2339 -71.8008 274° West 372 428 20,500 720 Climbing Boston Center
08:10PM 42.2408 -71.9408 274° West 372 428 21,200 720 Climbing Boston Center
08:11PM 42.2500 -72.1119 274° West 377 434 22,100 840 Climbing Boston Center
08:12PM 42.2564 -72.2550 274° West 387 445 22,900 600 Climbing Boston Center
08:13PM 42.2650 -72.4008 275° West 387 445 23,300 600 Climbing Boston Center
08:14PM 42.2711 -72.5467 273° West 392 451 24,100 600 Climbing Boston Center
08:15PM 42.2792 -72.6956 274° West 392 451 24,500 480 Climbing Boston Center
08:16PM 42.2850 -72.8414 273° West 392 451 25,100 600 Climbing Boston Center
08:17PM 42.2864 -72.9931 271° West 397 457 25,700 420 Climbing Boston Center
08:18PM 42.2731 -73.1417 263° West 402 463 26,000 120 Climbing Boston Center
08:19PM 42.2642 -73.2622 264° West 402 463 26,000  Level Boston Center
08:20PM 42.2525 -73.4161 264° West 396 456 26,000  Level Boston Center
08:22PM 42.2383 -73.5814 263° West 396 456 26,000  Level Boston Center
08:23PM 42.2219 -73.7522 263° West 410 472 26,000  Level Boston Center
08:24PM 42.2056 -73.9003 262° West 416 479 26,000  Level Boston Center
08:25PM 42.1908 -74.0542 263° West 416 479 26,000  Level Boston Center
08:26PM 42.1761 -74.2078 263° West 416 479 26,000  Level Boston Center
08:27PM 42.1653 -74.3589 265° West 416 479 26,000  Level Boston Center
08:28PM 42.1753 -74.5103 275° West 410 472 26,000  Level Boston Center
08:29PM 42.1842 -74.7011 274° West 415 478 26,000  Level Boston Center
08:30PM 42.1722 -74.8744 265° West 408 470 26,000  Level Boston Center
08:31PM 42.1378 -75.0158 252° West 400 460 26,000 -480 Level Boston Center
08:33PM 42.0731 -75.2747 251° West 388 447 24,800 -720 Descending New York Center
08:34PM 42.0489 -75.4153 257° West 388 447 24,000 -420 Descending New York Center
08:35PM 42.0336 -75.5400 261° West 388 447 24,000  Level New York Center
08:36PM 42.0178 -75.6783 261° West 388 447 24,000  Level New York Center
08:37PM 41.9972 -75.8192 259° West 388 447 24,000  Level New York Center
08:38PM 41.9808 -75.9575 261° West 388 447 24,000 -540 Level New York Center
08:39PM 41.9600 -76.1008 259° West 388 447 23,000 -1,020 Descending New York Center
08:40PM 41.9408 -76.2469 260° West 393 452 22,000 -540 Descending New York Center
08:41PM 41.9239 -76.3850 261° West 388 447 22,000  Level New York Center
08:42PM 41.9050 -76.5172 259° West 377 434 22,000  Level New York Center
08:43PM 41.8861 -76.6519 259° West 377 434 22,000  Level New York Center
08:44PM 41.8669 -76.7842 259° West 372 428 22,000  Level New York Center
08:46PM 41.8306 -77.0467 260° West 372 428 22,000  Level Cleveland Center
08:47PM 41.8011 -77.1736 253° West 367 422 22,000  Level Cleveland Center
08:48PM 41.7606 -77.2900 245° Southwest 361 415 22,000  Level Cleveland Center
08:49PM 41.7181 -77.4089 244° Southwest 356 410 22,000  Level Cleveland Center
08:50PM 41.6694 -77.5392 243° Southwest 356 410 22,000  Level Cleveland Center
08:51PM 41.6267 -77.6606 245° Southwest 356 410 22,000  Level Cleveland Center
08:52PM 41.5858 -77.7764 245° Southwest 356 410 22,000 -60 Level Cleveland Center
08:53PM 41.5450 -77.8947 245° Southwest 356 410 21,900 -720 Descending Cleveland Center
08:54PM 41.5000 -78.0242 245° Southwest 361 415 20,600 -960 Descending Cleveland Center
08:55PM 41.4508 -78.1564 244° Southwest 382 440 20,000 -300 Descending Cleveland Center
08:56PM 41.4114 -78.2711 245° Southwest 389 448 20,000  Level Cleveland Center
08:57PM 41.3642 -78.4142 246° West 389 448 20,000  Level Cleveland Center
08:58PM 41.3186 -78.5428 245° Southwest 389 448 20,000  Level Cleveland Center
08:59PM 41.2728 -78.6742 245° Southwest 389 448 20,000  Level Cleveland Center
09:00PM 41.2250 -78.8025 244° Southwest 389 448 20,000 -1,020 Level Cleveland Center
09:01PM 41.1808 -78.9278 245° Southwest 389 448 18,000 -1,860 Descending Cleveland Center
09:02PM 41.1386 -79.0364 243° Southwest 383 441 16,300 -2,040 Descending Cleveland Center
09:03PM 41.0925 -79.1669 245° Southwest 373 429 14,000 -2,160 Descending Cleveland Center
09:04PM 41.0500 -79.2836 244° Southwest 362 417 12,000 -1,980 Descending Cleveland Center
09:05PM 41.0053 -79.3972 242° Southwest 357 411 10,100 -1,020 Descending Cleveland Center
09:06PM 40.9669 -79.5053 245° Southwest 346 398 10,000 -60 Descending Cleveland Center
09:07PM 40.9303 -79.6075 245° Southwest 334 384 10,000  Level Cleveland Center
09:08PM 40.8914 -79.7125 244° Southwest 327 376 10,000  Level Cleveland Center
09:09PM 40.8275 -79.7956 225° Southwest 327 376 10,000 -420 Level Cleveland Center
09:10PM 40.7717 -79.8647 223° Southwest 304 350 9,200 -1,440 Descending Cleveland Center
09:11PM 40.7178 -79.9228 219° Southwest 276 318 7,200 -1,980 Descending Cleveland Center
09:12PM 40.6533 -79.9564 202° Southwest 264 304 5,300 -1,920 Descending Cleveland Center
09:13PM 40.5847 -79.9897 200° South 258 297 3,400 -1,200 Descending Cleveland Center
09:14PM 40.5244 -80.0178 199° South 258 297 3,000 -420 Descending Cleveland Center